Time;durP1;ratioP1;P1;durP2;ratioP2;P2;SDS_P1;SDS_P2;PMS_P1;PMS_P2;Temp;Humidity;BMP_temperature;BMP_pressure;BME280_temperature;BME280_humidity;BME280_pressure;Samples;Min_cycle;Max_cycle;Signal;HPM_P1;HPM_P2
2022/10/03 00:03:42;;;;;;;1.77;0.13;;;;;;;13.05;100.00;98523.03;18237159;32;20050;-64
2022/10/03 00:14:20;;;;;;;0.40;0.10;;;;;;;13.02;100.00;98539.88;18165896;32;20070;-64
2022/10/03 00:24:56;;;;;;;0.43;0.20;;;;;;;12.93;100.00;98539.53;18165422;32;20062;-63
2022/10/03 00:35:01;;;;;;;0.25;0.10;;;;;;;12.84;100.00;98539.22;18164694;32;20071;-64
2022/10/03 00:45:54;;;;;;;0.68;0.17;;;;;;;12.82;100.00;98552.22;18183427;32;20072;-63
2022/10/03 00:56:06;;;;;;;0.25;0.10;;;;;;;12.79;100.00;98574.47;18235826;32;20054;-64
2022/10/03 01:06:15;;;;;;;0.85;0.20;;;;;;;12.75;100.00;98592.38;18235457;32;20122;-64
2022/10/03 01:16:57;;;;;;;0.50;0.40;;;;;;;12.73;100.00;98585.56;18235105;32;20055;-63
2022/10/03 01:27:09;;;;;;;0.73;0.52;;;;;;;12.63;100.00;98587.12;18038312;32;20444;-63
2022/10/03 01:37:42;;;;;;;1.27;0.77;;;;;;;12.60;100.00;98603.12;18037733;32;20105;-63
2022/10/03 01:47:50;;;;;;;1.15;0.85;;;;;;;12.61;100.00;98611.00;18037276;32;20444;-63
2022/10/03 01:58:21;;;;;;;1.40;1.00;;;;;;;12.60;100.00;98614.78;18116296;32;20043;-64
2022/10/03 02:08:24;;;;;;;2.03;1.48;;;;;;;12.56;100.00;98621.00;18233355;32;20051;-63
2022/10/03 02:18:51;;;;;;;4.57;2.83;;;;;;;12.50;100.00;98610.09;18231412;32;20153;-63
2022/10/03 02:29:07;;;;;;;4.62;3.12;;;;;;;12.44;100.00;98611.13;18230970;32;20072;-63
2022/10/03 02:39:32;;;;;;;4.28;3.00;;;;;;;12.44;100.00;98613.03;18231389;32;20370;-62
2022/10/03 02:49:57;;;;;;;5.95;3.08;;;;;;;12.45;100.00;98618.19;18229739;32;20111;-62
2022/10/03 03:00:08;;;;;;;4.07;3.30;;;;;;;12.41;100.00;98600.78;18230520;32;20080;-62
2022/10/03 03:10:26;;;;;;;4.47;3.28;;;;;;;12.40;100.00;98595.62;18230444;32;20092;-62
2022/10/03 03:20:32;;;;;;;3.87;2.90;;;;;;;12.29;100.00;98602.84;18229446;32;20499;-62
2022/10/03 03:30:47;;;;;;;4.32;3.12;;;;;;;12.27;100.00;98611.25;18239217;32;20081;-62
2022/10/03 03:41:44;;;;;;;4.87;2.80;;;;;;;12.26;100.00;98601.47;18239289;32;20073;-62
2022/10/03 03:52:05;;;;;;;3.80;2.80;;;;;;;12.23;100.00;98604.72;18289727;32;20128;-62
2022/10/03 04:02:13;;;;;;;7.60;2.95;;;;;;;12.17;100.00;98601.16;18302471;32;20352;-62
2022/10/03 04:12:31;;;;;;;3.20;2.40;;;;;;;12.11;100.00;98585.88;18301624;32;20112;-62
2022/10/03 04:22:33;;;;;;;6.43;2.70;;;;;;;12.14;100.00;98588.12;18263600;32;20066;-62
2022/10/03 04:33:03;;;;;;;4.75;3.03;;;;;;;12.11;100.00;98591.31;18237160;32;20162;-62
2022/10/03 04:43:14;;;;;;;4.70;3.70;;;;;;;12.08;100.00;98580.19;18236018;32;20122;-62
2022/10/03 04:53:33;;;;;;;8.25;4.65;;;;;;;12.05;100.00;98597.78;18236325;32;20070;-62
2022/10/03 05:03:57;;;;;;;5.30;4.32;;;;;;;12.00;100.00;98578.75;18222005;32;20058;-62
2022/10/03 05:14:27;;;;;;;6.90;5.90;;;;;;;11.99;100.00;98594.22;18234245;32;20107;-62
2022/10/03 05:24:38;;;;;;;6.80;5.40;;;;;;;11.98;100.00;98603.41;18234855;32;20055;-62
2022/10/03 05:35:05;;;;;;;8.05;6.40;;;;;;;11.96;100.00;98621.00;18233119;32;20062;-62
2022/10/03 05:45:28;;;;;;;5.82;4.60;;;;;;;11.95;100.00;98630.19;18233502;32;20054;-62
2022/10/03 05:55:36;;;;;;;7.07;6.28;;;;;;;11.92;100.00;98627.97;18233394;32;20065;-62
2022/10/03 06:06:00;;;;;;;7.62;6.62;;;;;;;11.95;100.00;98632.91;18160368;32;20108;-62
2022/10/03 06:16:29;;;;;;;9.05;6.75;;;;;;;11.99;100.00;98659.25;18160693;32;20082;-62
2022/10/03 06:26:49;;;;;;;11.20;8.30;;;;;;;12.00;100.00;98676.34;18159740;32;20073;-62
2022/10/03 06:37:11;;;;;;;15.02;10.40;;;;;;;12.04;100.00;98672.03;18050984;32;20071;-62
2022/10/03 06:48:01;;;;;;;12.15;9.20;;;;;;;12.06;100.00;98686.16;18096589;32;20086;-62
2022/10/03 06:58:33;;;;;;;14.07;9.52;;;;;;;12.00;100.00;98693.44;18098317;32;20466;-62
2022/10/03 07:08:44;;;;;;;15.65;10.52;;;;;;;11.99;100.00;98696.38;18230029;32;20140;-62
2022/10/03 07:18:53;;;;;;;16.40;9.07;;;;;;;12.09;100.00;98690.28;18240436;32;20449;-62
2022/10/03 07:29:08;;;;;;;11.35;9.30;;;;;;;12.08;100.00;98699.47;18240075;32;20070;-62
2022/10/03 07:39:55;;;;;;;10.15;8.60;;;;;;;12.06;100.00;98707.84;18167480;32;20066;-62
2022/10/03 07:50:21;;;;;;;8.52;7.12;;;;;;;12.03;100.00;98730.88;18153976;32;20066;-62
2022/10/03 08:00:28;;;;;;;10.93;7.32;;;;;;;11.96;100.00;98738.38;18154229;32;20282;-62
2022/10/03 08:10:31;;;;;;;9.68;7.15;;;;;;;11.99;100.00;98739.75;18230615;32;20104;-62
2022/10/03 08:20:54;;;;;;;8.63;7.07;;;;;;;12.12;100.00;98750.22;18091656;32;20079;-62
2022/10/03 08:31:08;;;;;;;9.80;6.85;;;;;;;12.17;100.00;98750.28;18103159;32;20147;-62
2022/10/03 08:41:38;;;;;;;9.73;7.67;;;;;;;12.43;100.00;98752.44;18040443;32;20075;-62
2022/10/03 08:52:12;;;;;;;8.73;6.95;;;;;;;12.38;100.00;98750.50;18148800;32;20127;-62
2022/10/03 09:02:38;;;;;;;10.07;7.25;;;;;;;12.69;100.00;98740.75;18163630;32;20443;-62
2022/10/03 09:13:11;;;;;;;7.57;5.68;;;;;;;12.97;100.00;98746.97;18153530;32;20105;-62
2022/10/03 09:23:17;;;;;;;7.68;5.22;;;;;;;13.17;100.00;98740.88;18162273;32;20067;-62
2022/10/03 09:33:58;;;;;;;5.62;4.45;;;;;;;13.18;100.00;98734.38;18162146;32;20538;-62
2022/10/03 09:44:33;;;;;;;6.20;5.25;;;;;;;13.50;100.00;98733.53;18180230;32;20067;-62
2022/10/03 09:54:42;;;;;;;5.57;4.50;;;;;;;13.82;100.00;98732.59;18233282;32;20058;-62
2022/10/03 10:04:58;;;;;;;5.87;4.18;;;;;;;14.11;100.00;98729.44;18160707;32;20119;-62
2022/10/03 10:15:19;;;;;;;5.32;4.03;;;;;;;14.16;100.00;98720.47;18036135;32;20075;-61
2022/10/03 10:25:49;;;;;;;5.62;3.15;;;;;;;14.55;100.00;98707.22;17974791;33;20060;-62
2022/10/03 10:36:29;;;;;;;4.57;2.90;;;;;;;14.78;100.00;98701.56;18174224;32;20062;-62
2022/10/03 10:47:16;;;;;;;5.55;2.67;;;;;;;14.86;100.00;98704.53;18220817;32;20086;-62
2022/10/03 10:57:59;;;;;;;4.47;3.55;;;;;;;15.03;100.00;98706.16;18054095;32;20075;-62
2022/10/03 11:08:12;;;;;;;5.18;3.20;;;;;;;15.11;100.00;98697.44;18122044;32;20038;-62
2022/10/03 11:18:42;;;;;;;4.53;3.20;;;;;;;15.17;100.00;98695.50;18240517;32;20381;-62
2022/10/03 11:29:16;;;;;;;5.72;3.58;;;;;;;15.23;100.00;98695.22;18238597;32;20461;-62
2022/10/03 11:39:33;;;;;;;6.25;5.40;;;;;;;15.31;94.44;98693.88;18239847;32;20069;-62
2022/10/03 11:50:05;;;;;;;5.75;4.62;;;;;;;15.32;98.84;98698.22;18238903;32;20442;-62
2022/10/03 12:00:21;;;;;;;3.50;2.90;;;;;;;15.19;98.51;98694.16;18238414;32;20445;-62
2022/10/03 12:10:54;;;;;;;5.75;4.10;;;;;;;15.50;93.38;98694.09;18237884;32;20062;-62
2022/10/03 12:21:13;;;;;;;3.72;3.22;;;;;;;16.21;92.80;98703.09;18165492;32;20161;-63
2022/10/03 12:31:34;;;;;;;4.95;2.25;;;;;;;16.22;91.91;98696.53;18141146;32;20062;-62
2022/10/03 12:41:49;;;;;;;2.97;1.98;;;;;;;15.93;89.25;98682.78;18164661;32;20125;-63
2022/10/03 12:51:59;;;;;;;3.87;1.90;;;;;;;16.17;91.76;98679.38;18226784;32;20061;-62
2022/10/03 13:02:17;;;;;;;3.17;1.20;;;;;;;15.98;87.93;98666.38;18235448;32;20501;-62
2022/10/03 13:12:38;;;;;;;3.47;1.58;;;;;;;15.70;88.05;98655.00;18234493;32;20094;-62
2022/10/03 13:22:55;;;;;;;2.10;1.10;;;;;;;15.68;88.51;98650.97;18235063;32;20058;-62
2022/10/03 13:33:17;;;;;;;1.70;1.05;;;;;;;15.41;84.99;98641.25;18235024;32;20058;-62
2022/10/03 13:43:27;;;;;;;1.25;0.82;;;;;;;15.30;85.35;98631.47;18234206;32;20332;-63
2022/10/03 13:54:05;;;;;;;1.60;0.90;;;;;;;15.38;90.35;98625.44;18233215;32;20097;-62
2022/10/03 14:04:36;;;;;;;1.40;0.90;;;;;;;15.57;87.86;98618.28;18295090;32;20103;-62
2022/10/03 14:15:00;;;;;;;1.70;0.88;;;;;;;15.95;85.40;98612.41;18294268;32;20191;-62
2022/10/03 14:25:25;;;;;;;1.62;0.80;;;;;;;16.35;89.65;98596.00;18294530;32;20434;-63
2022/10/03 14:36:00;;;;;;;1.57;0.87;;;;;;;16.12;86.58;98581.19;18270955;32;20102;-62
2022/10/03 14:46:05;;;;;;;1.90;0.93;;;;;;;16.15;85.43;98584.16;18231174;32;20062;-62
2022/10/03 14:56:12;;;;;;;1.27;0.68;;;;;;;15.94;86.13;98586.22;18221203;32;20115;-62
2022/10/03 15:06:34;;;;;;;1.20;0.80;;;;;;;15.81;93.54;98590.37;18221159;32;20133;-62
2022/10/03 15:16:48;;;;;;;2.00;0.75;;;;;;;15.68;95.08;98585.53;18221274;32;20061;-62
2022/10/03 15:27:00;;;;;;;1.30;0.70;;;;;;;15.39;91.19;98583.50;18175402;32;20078;-62
2022/10/03 15:37:22;;;;;;;1.23;0.70;;;;;;;15.07;92.94;98581.94;18177756;32;20451;-62
2022/10/03 15:47:28;;;;;;;1.80;0.70;;;;;;;14.73;94.71;98567.06;18176873;32;20080;-63
2022/10/03 15:57:35;;;;;;;1.33;0.90;;;;;;;14.44;97.70;98550.47;18227422;32;20047;-63
2022/10/03 16:07:50;;;;;;;0.93;0.80;;;;;;;14.15;98.78;98556.44;18091993;32;20087;-63
2022/10/03 16:18:04;;;;;;;0.80;0.70;;;;;;;13.97;99.61;98554.28;18103781;32;20070;-62
2022/10/03 16:28:13;;;;;;;2.85;0.80;;;;;;;13.76;100.00;98539.81;18103406;32;20560;-62
2022/10/03 16:38:25;;;;;;;1.45;0.82;;;;;;;13.51;100.00;98535.97;18214796;32;20054;-62
2022/10/03 16:58:57;;;;;;;3.03;1.05;;;;;;;12.90;100.00;98531.13;18226380;32;20103;-62
2022/10/03 17:09:15;;;;;;;4.93;0.90;;;;;;;12.58;100.00;98535.56;18226458;32;20123;-62
2022/10/03 17:19:43;;;;;;;2.60;1.40;;;;;;;12.32;100.00;98538.09;18226089;32;20476;-62
2022/10/03 17:30:01;;;;;;;2.35;1.50;;;;;;;12.04;100.00;98547.34;18227847;32;20055;-62
2022/10/03 17:40:15;;;;;;;3.55;2.08;;;;;;;11.80;100.00;98546.81;18234393;32;20051;-62
2022/10/03 17:50:53;;;;;;;2.75;1.55;;;;;;;11.58;100.00;98536.03;18233739;32;20448;-62
2022/10/03 18:01:05;;;;;;;2.47;1.40;;;;;;;11.40;100.00;98548.88;18295659;32;20133;-62
2022/10/03 18:11:09;;;;;;;1.75;1.42;;;;;;;11.16;100.00;98535.56;18295038;32;20496;-62
2022/10/03 18:21:45;;;;;;;2.75;1.52;;;;;;;11.02;100.00;98529.72;18294599;32;20081;-62
2022/10/03 18:31:56;;;;;;;2.58;1.70;;;;;;;10.85;100.00;98523.56;17919011;33;20126;-62
2022/10/03 18:42:01;;;;;;;2.75;2.33;;;;;;;10.72;100.00;98526.66;17913354;33;20125;-62
2022/10/03 18:52:04;;;;;;;;;;;;;;;10.56;100.00;98522.91;17901129;33;20079;-62
2022/10/03 19:02:18;;;;;;;5.05;2.53;;;;;;;10.40;100.00;98529.97;17996328;32;19942;-62
2022/10/03 19:12:22;;;;;;;4.70;2.50;;;;;;;10.25;100.00;98522.41;18240009;32;20094;-61
2022/10/03 19:22:53;;;;;;;3.12;2.10;;;;;;;10.13;100.00;98509.81;18240801;32;20053;-62
2022/10/03 19:33:07;;;;;;;3.55;2.50;;;;;;;9.95;100.00;98518.16;18240262;32;20062;-61
2022/10/03 19:43:34;;;;;;;9.17;3.17;;;;;;;9.79;100.00;98515.19;18239460;32;20422;-62
2022/10/03 19:53:42;;;;;;;5.53;3.10;;;;;;;9.69;100.00;98516.88;18238643;32;20049;-61
2022/10/03 20:03:51;;;;;;;2.87;2.30;;;;;;;9.58;100.00;98511.31;18238453;32;20062;-62
2022/10/03 20:14:27;;;;;;;8.03;4.00;;;;;;;9.45;100.00;98501.63;18237698;32;20047;-61
2022/10/03 20:24:40;;;;;;;6.27;4.37;;;;;;;9.39;100.00;98513.41;18236443;32;20081;-61
2022/10/03 20:34:51;;;;;;;4.17;3.30;;;;;;;9.19;100.00;98491.44;18237048;32;20069;-62
2022/10/03 20:45:13;;;;;;;4.33;3.13;;;;;;;9.07;100.00;98492.28;18235812;32;20054;-62
2022/10/03 20:55:24;;;;;;;6.43;3.30;;;;;;;8.87;100.00;98489.19;18236662;32;20039;-61
2022/10/03 21:05:32;;;;;;;4.30;3.50;;;;;;;8.79;100.00;98479.59;18101678;32;20116;-61
2022/10/03 21:15:46;;;;;;;3.30;2.67;;;;;;;8.68;100.00;98478.56;18100602;32;20560;-61
2022/10/03 21:25:53;;;;;;;6.57;3.43;;;;;;;8.60;100.00;98473.53;18100538;32;20062;-62
2022/10/03 21:36:08;;;;;;;5.50;4.17;;;;;;;8.52;100.00;98473.91;18124449;32;20104;-61
2022/10/03 21:46:15;;;;;;;8.75;4.05;;;;;;;8.39;100.00;98456.88;18234122;32;20081;-61
2022/10/03 21:56:47;;;;;;;4.60;3.07;;;;;;;8.26;100.00;98455.28;18233493;32;20486;-62
2022/10/03 22:07:08;;;;;;;6.23;3.13;;;;;;;8.14;100.00;98457.97;18232093;32;20557;-62
2022/10/03 22:17:29;;;;;;;3.90;2.57;;;;;;;8.13;100.00;98450.12;18232570;32;20070;-61
2022/10/03 22:27:50;;;;;;;5.37;2.50;;;;;;;8.09;100.00;98449.75;18231649;32;20062;-61
2022/10/03 22:37:55;;;;;;;4.73;3.00;;;;;;;8.09;100.00;98443.56;18231880;32;20488;-62
2022/10/03 22:48:03;;;;;;;11.93;3.43;;;;;;;7.95;100.00;98432.22;18097003;32;20075;-62
2022/10/03 22:58:07;;;;;;;4.03;3.27;;;;;;;7.85;100.00;98426.56;18096780;32;20133;-62
2022/10/03 23:08:15;;;;;;;4.70;3.77;;;;;;;7.77;100.00;98408.87;18096257;32;20122;-61
2022/10/03 23:18:26;;;;;;;4.00;3.60;;;;;;;7.69;100.00;98410.06;18122689;32;20089;-62
2022/10/03 23:28:44;;;;;;;4.13;3.27;;;;;;;7.53;100.00;98403.47;18157764;32;20063;-61
2022/10/03 23:38:47;;;;;;;8.13;4.10;;;;;;;7.41;100.00;98406.19;18157715;32;20097;-62
2022/10/03 23:49:00;;;;;;;4.60;3.53;;;;;;;7.31;100.00;98394.34;18266978;32;20062;-62
2022/10/03 23:59:03;;;;;;;7.63;3.37;;;;;;;7.22;100.00;98391.13;18104704;32;20070;-64
